Time;durP1;ratioP1;P1;durP2;ratioP2;P2;SDS_P1;SDS_P2;PMS_P1;PMS_P2;Temp;Humidity;BMP_temperature;BMP_pressure;BME280_temperature;BME280_humidity;BME280_pressure;Samples;Min_cycle;Max_cycle;Signal;HPM_P1;HPM_P2
2022/09/22 00:01:10;;;;;;;7.50;5.00;;;8.40;99.90;;;;;;5072138;28;20440;-78
2022/09/22 00:03:39;;;;;;;7.60;5.00;;;8.40;99.90;;;;;;5060209;28;20047;-77
2022/09/22 00:06:10;;;;;;;12.13;5.68;;;8.40;99.90;;;;;;5060034;28;20051;-79
2022/09/22 00:08:38;;;;;;;9.02;5.07;;;8.40;99.90;;;;;;5061982;28;20047;-78
2022/09/22 00:11:18;;;;;;;8.30;5.13;;;8.40;99.90;;;;;;5045577;28;20139;-77
2022/09/22 00:13:58;;;;;;;10.63;5.88;;;8.30;99.90;;;;;;5077138;28;20036;-76
2022/09/22 00:16:32;;;;;;;10.70;6.80;;;8.20;99.90;;;;;;5060956;28;20414;-78
2022/09/22 00:19:19;;;;;;;12.27;6.80;;;8.20;99.90;;;;;;5064307;28;20039;-77
2022/09/22 00:21:51;;;;;;;10.95;5.50;;;8.20;99.90;;;;;;5101821;28;20040;-78
2022/09/22 00:24:21;;;;;;;7.40;4.35;;;8.20;99.90;;;;;;5071270;28;20051;-78
2022/09/22 00:26:47;;;;;;;9.93;4.10;;;8.00;99.90;;;;;;5064343;28;20039;-79
2022/09/22 00:29:16;;;;;;;6.47;3.30;;;8.10;99.90;;;;;;5059725;28;20097;-78
2022/09/22 00:31:42;;;;;;;4.47;2.80;;;8.10;99.90;;;;;;5077993;28;20420;-77
2022/09/22 00:34:14;;;;;;;5.00;3.20;;;8.00;99.90;;;;;;5075835;28;20032;-77
2022/09/22 00:36:40;;;;;;;4.78;3.33;;;8.00;99.90;;;;;;5074352;28;20051;-77
2022/09/22 00:39:05;;;;;;;6.88;3.70;;;8.10;99.90;;;;;;5062332;28;20025;-76
2022/09/22 00:41:36;;;;;;;4.90;3.30;;;7.90;99.90;;;;;;5076604;28;20177;-77
2022/09/22 00:44:20;;;;;;;7.43;3.40;;;8.00;99.90;;;;;;5086861;28;20411;-77
2022/09/22 00:47:12;;;;;;;6.38;3.30;;;8.00;99.90;;;;;;5078165;28;20048;-79
2022/09/22 00:49:56;;;;;;;6.50;3.90;;;7.90;99.90;;;;;;5080472;28;20105;-77
2022/09/22 00:52:26;;;;;;;9.43;4.53;;;7.90;99.90;;;;;;5068002;28;20523;-77
2022/09/22 00:54:55;;;;;;;9.07;4.03;;;7.90;99.90;;;;;;5076872;28;20040;-78
2022/09/22 00:57:30;;;;;;;11.70;3.95;;;7.90;99.90;;;;;;5057780;28;20032;-77
2022/09/22 00:59:56;;;;;;;4.20;3.38;;;7.80;99.90;;;;;;5059899;28;20504;-77
2022/09/22 01:02:23;;;;;;;6.70;3.78;;;7.80;99.90;;;;;;5064078;28;20035;-77
2022/09/22 01:04:50;;;;;;;5.85;3.40;;;7.90;99.90;;;;;;5091242;28;20032;-76
2022/09/22 01:07:22;;;;;;;6.00;3.55;;;7.80;99.90;;;;;;5087337;28;20040;-78
2022/09/22 01:09:48;;;;;;;5.85;3.40;;;7.80;99.90;;;;;;5077083;28;20055;-79
2022/09/22 01:12:14;;;;;;;5.35;3.50;;;7.70;99.90;;;;;;5063038;28;20629;-77
2022/09/22 01:14:57;;;;;;;8.15;3.53;;;7.70;99.90;;;;;;5083242;28;20038;-77
2022/09/22 01:17:49;;;;;;;6.60;3.72;;;7.70;99.90;;;;;;5079913;28;20105;-77
2022/09/22 01:20:14;;;;;;;8.85;3.63;;;7.70;99.90;;;;;;5062040;28;20130;-77
2022/09/22 01:22:58;;;;;;;8.70;3.72;;;7.70;99.90;;;;;;5077574;28;20122;-78
2022/09/22 01:25:52;;;;;;;7.10;3.50;;;7.70;99.90;;;;;;5066809;28;20043;-76
2022/09/22 01:28:38;;;;;;;8.77;3.75;;;7.70;99.90;;;;;;5079661;28;20035;-76
2022/09/22 01:31:25;;;;;;;6.15;4.00;;;7.70;99.90;;;;;;5096361;28;20071;-78
2022/09/22 01:33:55;;;;;;;8.60;3.80;;;7.60;99.90;;;;;;5101583;28;20043;-79
2022/09/22 01:36:50;;;;;;;11.90;4.00;;;7.60;99.90;;;;;;5068935;28;20042;-79
2022/09/22 01:39:29;;;;;;;6.95;3.65;;;7.60;99.90;;;;;;5050001;28;20059;-78
2022/09/22 01:42:22;;;;;;;7.70;3.65;;;7.60;99.90;;;;;;5071488;28;20469;-77
2022/09/22 01:45:00;;;;;;;6.30;3.40;;;7.70;99.90;;;;;;5093942;28;20092;-77
2022/09/22 01:47:39;;;;;;;6.97;3.83;;;7.60;99.90;;;;;;5084731;28;20031;-76
2022/09/22 01:50:14;;;;;;;7.57;3.65;;;7.60;99.90;;;;;;5073157;28;20470;-78
2022/09/22 01:52:41;;;;;;;6.18;3.50;;;7.50;99.90;;;;;;5077453;28;20571;-78
2022/09/22 01:55:20;;;;;;;8.70;3.65;;;7.50;99.90;;;;;;5066902;28;20101;-76
2022/09/22 01:57:58;;;;;;;7.03;3.58;;;7.40;99.90;;;;;;5086860;28;20035;-77
2022/09/22 02:00:24;;;;;;;5.07;3.40;;;7.30;99.90;;;;;;5067549;28;20036;-78
2022/09/22 02:02:52;;;;;;;6.38;3.65;;;7.30;99.90;;;;;;5084620;28;20059;-78
2022/09/22 02:05:24;;;;;;;6.30;3.40;;;7.30;99.90;;;;;;5083250;28;20097;-78
2022/09/22 02:07:52;;;;;;;5.22;3.40;;;7.30;99.90;;;;;;5086518;28;20027;-78
2022/09/22 02:10:23;;;;;;;8.07;3.60;;;7.30;99.90;;;;;;5080452;28;20439;-78
2022/09/22 02:12:49;;;;;;;5.45;3.17;;;7.20;99.90;;;;;;5069734;28;20117;-78
2022/09/22 02:18:11;;;;;;;7.07;3.40;;;7.20;99.90;;;;;;5076211;28;20084;-78
2022/09/22 02:20:37;;;;;;;6.43;3.35;;;7.20;99.90;;;;;;5062960;28;20039;-78
2022/09/22 02:23:03;;;;;;;11.15;3.53;;;7.20;99.90;;;;;;5081951;28;20474;-79
2022/09/22 02:25:29;;;;;;;7.32;3.47;;;7.10;99.90;;;;;;5063629;28;20118;-77
2022/09/22 02:27:56;;;;;;;5.93;3.60;;;7.10;99.90;;;;;;5079048;28;20071;-79
2022/09/22 02:30:22;;;;;;;8.90;4.03;;;7.10;99.90;;;;;;5079300;28;20146;-77
2022/09/22 02:32:51;;;;;;;4.40;3.05;;;7.00;99.90;;;;;;5065355;28;20032;-79
2022/09/22 02:35:18;;;;;;;8.10;3.15;;;6.90;99.90;;;;;;5062789;28;20079;-78
2022/09/22 02:37:47;;;;;;;5.40;3.13;;;6.90;99.90;;;;;;5060008;28;20032;-78
2022/09/22 02:40:30;;;;;;;5.00;3.30;;;7.00;99.90;;;;;;5078385;28;20040;-79
2022/09/22 02:43:08;;;;;;;8.73;3.25;;;6.90;99.90;;;;;;5098763;28;20059;-78
2022/09/22 02:45:37;;;;;;;7.68;3.15;;;6.90;99.90;;;;;;5085888;28;20060;-77
2022/09/22 02:48:29;;;;;;;6.88;3.25;;;6.80;99.90;;;;;;5062417;28;20501;-77
2022/09/22 02:50:56;;;;;;;10.18;3.30;;;6.80;99.90;;;;;;5085947;28;20176;-78
2022/09/22 02:53:22;;;;;;;4.65;2.95;;;6.80;99.90;;;;;;5083705;28;20536;-80
2022/09/22 02:55:48;;;;;;;6.63;2.72;;;6.80;99.90;;;;;;5084932;28;20028;-76
2022/09/22 02:58:15;;;;;;;6.85;3.00;;;6.80;99.90;;;;;;5081705;28;20508;-77
2022/09/22 03:00:44;;;;;;;5.50;3.42;;;6.80;99.90;;;;;;5078933;28;20051;-77
2022/09/22 03:03:30;;;;;;;4.10;3.00;;;6.70;99.90;;;;;;5102536;28;20043;-77
2022/09/22 03:05:55;;;;;;;4.43;3.22;;;6.80;99.90;;;;;;5095067;28;20106;-78
2022/09/22 03:08:21;;;;;;;4.25;2.97;;;6.80;99.90;;;;;;5105459;28;20048;-76
2022/09/22 03:10:47;;;;;;;7.00;2.90;;;6.70;99.90;;;;;;5106410;28;20103;-77
2022/09/22 03:13:12;;;;;;;8.55;3.30;;;6.80;99.90;;;;;;5094713;28;20047;-78
2022/09/22 03:15:38;;;;;;;7.47;3.40;;;6.70;99.90;;;;;;5086626;28;20047;-77
2022/09/22 03:18:04;;;;;;;6.82;3.35;;;6.80;99.90;;;;;;5092050;28;20034;-78
2022/09/22 03:20:30;;;;;;;5.78;3.75;;;6.80;99.90;;;;;;5084469;28;20100;-79
2022/09/22 03:22:56;;;;;;;6.15;3.70;;;6.80;99.90;;;;;;5081827;28;20064;-77
2022/09/22 03:25:22;;;;;;;9.43;3.70;;;6.80;99.90;;;;;;5061615;28;20192;-76
2022/09/22 03:27:47;;;;;;;9.18;3.97;;;6.80;99.90;;;;;;5066098;28;20474;-78
2022/09/22 03:30:13;;;;;;;10.55;3.80;;;6.80;99.90;;;;;;5065923;28;20881;-78
2022/09/22 03:32:39;;;;;;;7.88;4.00;;;6.90;99.90;;;;;;5082957;28;20039;-78
2022/09/22 03:35:05;;;;;;;9.27;3.83;;;6.90;99.90;;;;;;5070692;28;20035;-79
2022/09/22 03:37:32;;;;;;;6.45;3.58;;;6.80;99.90;;;;;;5070971;28;20100;-78
2022/09/22 03:39:57;;;;;;;7.03;3.90;;;6.90;99.90;;;;;;5043193;28;20133;-78
2022/09/22 03:42:23;;;;;;;15.98;3.92;;;6.80;99.90;;;;;;5062416;28;20150;-80
2022/09/22 03:44:49;;;;;;;7.32;3.60;;;6.80;99.90;;;;;;5101043;28;20080;-78
2022/09/22 03:47:14;;;;;;;12.02;3.40;;;6.80;99.90;;;;;;5063178;28;20044;-78
2022/09/22 03:49:40;;;;;;;5.88;3.80;;;6.80;99.90;;;;;;5077512;28;20039;-78
2022/09/22 03:52:06;;;;;;;7.82;3.28;;;6.70;99.90;;;;;;5080710;28;20035;-76
2022/09/22 03:54:34;;;;;;;9.65;3.45;;;6.70;99.90;;;;;;5064594;28;20043;-77
2022/09/22 03:56:59;;;;;;;12.88;3.63;;;6.70;99.90;;;;;;5087792;28;20035;-80
2022/09/22 03:59:25;;;;;;;6.90;3.33;;;6.70;99.90;;;;;;5085204;28;20040;-79
2022/09/22 04:01:50;;;;;;;11.82;3.75;;;6.70;99.90;;;;;;5083688;28;20087;-76
2022/09/22 04:04:16;;;;;;;7.25;3.58;;;6.70;99.90;;;;;;5072030;28;20051;-79
2022/09/22 04:06:42;;;;;;;13.23;3.92;;;6.70;99.90;;;;;;5088789;28;20070;-77
2022/09/22 04:09:08;;;;;;;7.35;3.53;;;6.70;99.90;;;;;;5066333;28;20044;-77
2022/09/22 04:11:35;;;;;;;18.17;4.18;;;6.70;99.90;;;;;;5053245;28;20204;-79
2022/09/22 04:14:02;;;;;;;11.80;3.85;;;6.80;99.90;;;;;;5081561;28;20062;-77
2022/09/22 04:16:29;;;;;;;11.63;4.05;;;6.80;99.90;;;;;;5079201;28;20049;-80
2022/09/22 04:18:55;;;;;;;6.07;3.40;;;6.80;99.90;;;;;;5078610;28;20452;-78
2022/09/22 04:21:20;;;;;;;7.63;3.17;;;6.70;99.90;;;;;;5076921;28;20853;-77
2022/09/22 04:23:46;;;;;;;7.88;3.38;;;6.70;99.90;;;;;;5081502;28;20127;-78
2022/09/22 04:26:12;;;;;;;8.23;3.22;;;6.70;99.90;;;;;;5061860;28;20032;-77
2022/09/22 04:28:37;;;;;;;6.63;3.28;;;6.60;99.90;;;;;;5078978;28;20038;-78
2022/09/22 04:31:03;;;;;;;8.82;3.53;;;6.70;99.90;;;;;;5074224;28;20044;-76
2022/09/22 04:33:31;;;;;;;8.00;3.47;;;6.60;99.90;;;;;;5067591;28;20047;-80
2022/09/22 04:35:57;;;;;;;7.40;3.10;;;6.60;99.90;;;;;;5078312;28;20425;-77
2022/09/22 04:38:23;;;;;;;10.88;3.00;;;6.60;99.90;;;;;;5064436;28;20048;-78
2022/09/22 04:40:51;;;;;;;8.70;3.10;;;6.60;99.90;;;;;;5078113;28;20039;-77
2022/09/22 04:43:16;;;;;;;10.23;3.50;;;6.60;99.90;;;;;;5058505;28;20658;-79
2022/09/22 04:45:44;;;;;;;6.63;3.05;;;6.60;99.90;;;;;;5080058;28;20044;-77
2022/09/22 04:48:10;;;;;;;10.25;3.30;;;6.60;99.90;;;;;;5059308;28;20040;-78
2022/09/22 04:50:36;;;;;;;5.30;3.13;;;6.60;99.90;;;;;;5078242;28;20504;-78
2022/09/22 04:53:01;;;;;;;11.38;3.55;;;6.50;99.90;;;;;;5079454;28;20092;-78
2022/09/22 04:55:27;;;;;;;6.05;3.55;;;6.60;99.90;;;;;;5057201;28;20040;-78
2022/09/22 04:57:55;;;;;;;7.10;3.60;;;6.50;99.90;;;;;;5062965;28;20075;-78
2022/09/22 05:00:23;;;;;;;14.73;3.20;;;6.60;99.90;;;;;;5078232;28;20044;-80
2022/09/22 05:02:48;;;;;;;8.00;3.55;;;6.60;99.90;;;;;;5077575;28;20440;-77
2022/09/22 05:05:14;;;;;;;8.25;3.35;;;6.50;99.90;;;;;;5081836;28;20157;-79
2022/09/22 05:07:47;;;;;;;8.75;3.22;;;6.60;99.90;;;;;;5081106;28;20127;-78
2022/09/22 05:10:16;;;;;;;7.57;3.40;;;6.60;99.90;;;;;;5075974;28;20067;-76
2022/09/22 05:12:43;;;;;;;10.25;3.60;;;6.50;99.90;;;;;;5072232;28;20050;-78
2022/09/22 05:15:12;;;;;;;4.88;3.10;;;6.50;99.90;;;;;;5075362;28;20043;-78
2022/09/22 05:17:45;;;;;;;8.02;3.30;;;6.50;99.90;;;;;;5076128;28;20387;-80
2022/09/22 05:20:11;;;;;;;8.32;3.67;;;6.50;99.90;;;;;;5062097;28;20060;-80
2022/09/22 05:22:40;;;;;;;8.80;4.10;;;6.50;99.90;;;;;;5084049;28;20052;-79
2022/09/22 05:25:09;;;;;;;6.10;3.97;;;6.50;99.90;;;;;;5057962;28;20096;-79
2022/09/22 05:27:34;;;;;;;8.25;3.88;;;6.40;99.90;;;;;;5076371;28;20690;-80
2022/09/22 05:30:00;;;;;;;9.32;4.05;;;6.50;99.90;;;;;;5075939;28;20038;-78
2022/09/22 05:32:26;;;;;;;7.55;4.00;;;6.50;99.90;;;;;;5077168;28;20078;-81
2022/09/22 05:34:51;;;;;;;9.20;4.07;;;6.60;99.90;;;;;;5060128;28;20043;-77
2022/09/22 05:37:17;;;;;;;8.45;3.90;;;6.50;99.90;;;;;;5081564;28;20119;-78
2022/09/22 05:39:43;;;;;;;7.20;4.32;;;6.60;99.90;;;;;;5048574;28;20502;-79
2022/09/22 05:42:08;;;;;;;11.38;4.32;;;6.60;99.90;;;;;;5066687;28;20449;-77
2022/09/22 05:44:34;;;;;;;12.45;4.40;;;6.60;99.90;;;;;;5062670;28;20519;-78
2022/09/22 05:47:01;;;;;;;12.02;4.80;;;6.80;99.90;;;;;;5079714;28;20230;-78
2022/09/22 05:49:26;;;;;;;10.05;4.22;;;6.70;99.90;;;;;;5060027;28;20043;-76
2022/09/22 05:51:56;;;;;;;9.60;4.65;;;6.80;99.90;;;;;;5062576;28;20036;-77
2022/09/22 05:54:22;;;;;;;7.90;4.10;;;6.70;99.90;;;;;;5057914;28;20456;-78
2022/09/22 05:56:48;;;;;;;7.22;4.40;;;6.70;99.90;;;;;;5075662;28;20094;-76
2022/09/22 05:59:14;;;;;;;12.20;4.75;;;6.80;99.90;;;;;;5055222;28;21026;-77
2022/09/22 06:01:40;;;;;;;8.52;4.20;;;6.90;99.90;;;;;;5083196;28;20036;-75
2022/09/22 06:04:05;;;;;;;9.20;4.53;;;6.90;99.90;;;;;;5094887;28;20344;-78
2022/09/22 06:06:31;;;;;;;9.38;5.10;;;6.90;99.90;;;;;;5079908;28;20098;-76
2022/09/22 06:08:57;;;;;;;11.43;5.40;;;7.00;99.90;;;;;;5057478;28;20080;-78
2022/09/22 06:11:23;;;;;;;12.50;5.30;;;7.00;99.90;;;;;;5081767;28;20079;-78
2022/09/22 06:13:52;;;;;;;10.32;5.53;;;7.10;99.90;;;;;;5067338;28;20064;-76
2022/09/22 06:16:19;;;;;;;7.82;5.53;;;7.10;99.90;;;;;;5082459;28;20048;-77
2022/09/22 06:18:46;;;;;;;14.30;5.78;;;7.20;99.90;;;;;;5065707;28;20167;-76
2022/09/22 06:21:13;;;;;;;16.85;5.95;;;7.20;99.90;;;;;;5079615;28;20079;-76
2022/09/22 06:23:39;;;;;;;13.90;6.18;;;7.30;99.90;;;;;;5053285;28;20498;-75
2022/09/22 06:26:06;;;;;;;13.27;6.20;;;7.30;99.90;;;;;;5057073;28;20056;-76
2022/09/22 06:28:31;;;;;;;11.63;6.22;;;7.40;99.90;;;;;;5076015;28;20126;-78
2022/09/22 06:30:59;;;;;;;10.38;6.57;;;7.50;99.90;;;;;;5087313;27;20115;-76
2022/09/22 06:33:26;;;;;;;16.33;6.35;;;7.50;99.90;;;;;;5070466;28;20040;-75
2022/09/22 06:35:53;;;;;;;11.68;6.53;;;7.50;99.90;;;;;;5075307;28;20055;-76
2022/09/22 06:38:19;;;;;;;24.27;6.50;;;7.60;99.90;;;;;;5055384;28;20127;-76
2022/09/22 06:40:45;;;;;;;9.43;6.07;;;7.70;99.90;;;;;;5078869;28;20048;-75
2022/09/22 06:43:21;;;;;;;13.63;7.30;;;7.70;99.90;;;;;;5089801;28;20044;-76
2022/09/22 06:45:51;;;;;;;12.15;6.95;;;7.70;99.90;;;;;;5088208;28;20056;-75
2022/09/22 06:48:18;;;;;;;13.13;7.80;;;7.80;99.90;;;;;;5066278;28;20053;-74
2022/09/22 06:50:50;;;;;;;13.68;8.40;;;7.80;99.90;;;;;;5069461;28;20075;-74
2022/09/22 06:53:16;;;;;;;13.48;7.60;;;7.90;99.90;;;;;;5103203;27;20055;-74
2022/09/22 06:55:42;;;;;;;12.73;7.97;;;8.00;99.90;;;;;;5065245;28;20028;-75
2022/09/22 06:58:09;;;;;;;13.90;8.60;;;8.00;99.90;;;;;;5070897;28;20043;-75
2022/09/22 07:00:35;;;;;;;14.38;8.55;;;8.10;99.90;;;;;;5052423;28;20075;-78
2022/09/22 07:03:10;;;;;;;15.07;7.78;;;8.10;99.90;;;;;;5069401;28;20060;-75
2022/09/22 07:05:36;;;;;;;12.13;6.93;;;8.20;99.90;;;;;;5052397;28;20039;-77
2022/09/22 07:08:03;;;;;;;12.13;7.57;;;8.30;99.90;;;;;;5070245;28;20059;-76
2022/09/22 07:10:29;;;;;;;16.02;7.75;;;8.30;99.90;;;;;;5073095;28;20048;-75
2022/09/22 07:12:59;;;;;;;12.93;7.75;;;8.40;99.90;;;;;;5071073;28;20044;-76
2022/09/22 07:15:24;;;;;;;11.73;7.47;;;8.50;99.90;;;;;;5069579;28;20050;-76
2022/09/22 07:17:52;;;;;;;15.52;8.25;;;8.60;99.90;;;;;;5072012;28;20052;-76
2022/09/22 07:20:19;;;;;;;10.93;7.30;;;8.60;99.90;;;;;;5070118;28;22109;-76
2022/09/22 07:22:45;;;;;;;16.30;7.90;;;8.60;99.90;;;;;;5073045;28;20470;-75
2022/09/22 07:25:12;;;;;;;10.13;6.95;;;8.80;99.90;;;;;;5075559;28;20048;-77
2022/09/22 07:27:37;;;;;;;14.70;8.05;;;8.80;99.90;;;;;;5083103;28;20052;-77
2022/09/22 07:30:03;;;;;;;15.98;7.70;;;8.90;99.90;;;;;;5081679;28;20048;-77
2022/09/22 07:32:33;;;;;;;15.77;7.57;;;9.00;99.90;;;;;;5078416;28;21773;-76
2022/09/22 07:35:00;;;;;;;14.20;8.02;;;9.00;99.90;;;;;;5075155;28;20028;-77
2022/09/22 07:37:28;;;;;;;11.35;7.30;;;9.10;99.90;;;;;;5062635;28;21507;-77
2022/09/22 07:39:55;;;;;;;20.27;7.93;;;9.30;99.90;;;;;;5087451;28;20046;-76
2022/09/22 07:42:20;;;;;;;12.40;6.88;;;9.30;99.90;;;;;;5079483;28;20150;-77
2022/09/22 07:50:16;;;;;;;13.63;7.43;;;9.60;99.90;;;;;;5087470;28;20048;-77
2022/09/22 07:52:42;;;;;;;11.55;7.38;;;9.60;99.90;;;;;;5085031;28;20486;-77
2022/09/22 07:55:08;;;;;;;14.73;7.13;;;9.70;99.90;;;;;;5080995;28;20047;-76
2022/09/22 07:57:33;;;;;;;17.90;7.60;;;9.80;99.90;;;;;;5064348;28;20040;-76
2022/09/22 07:59:59;;;;;;;14.10;7.45;;;9.90;99.90;;;;;;5061391;28;20138;-78
2022/09/22 08:02:27;;;;;;;12.23;7.80;;;10.00;99.90;;;;;;5059778;28;20076;-76
2022/09/22 08:05:01;;;;;;;11.45;7.18;;;10.10;99.90;;;;;;5079141;28;20414;-76
2022/09/22 08:07:30;;;;;;;11.95;7.45;;;10.20;99.90;;;;;;5062898;28;20048;-77
2022/09/22 08:09:56;;;;;;;9.23;6.75;;;10.30;99.90;;;;;;5052594;28;20504;-78
2022/09/22 08:12:23;;;;;;;12.68;7.30;;;10.50;99.90;;;;;;5074663;28;20059;-76
2022/09/22 08:14:48;;;;;;;12.65;6.63;;;10.60;99.90;;;;;;5053638;28;20047;-78
2022/09/22 08:17:14;;;;;;;11.43;6.57;;;10.70;99.90;;;;;;5085541;28;20051;-76
2022/09/22 08:19:40;;;;;;;12.88;6.93;;;10.70;99.90;;;;;;5090458;28;20044;-78
2022/09/22 08:22:05;;;;;;;12.60;6.80;;;10.90;99.90;;;;;;5092595;28;20047;-79
2022/09/22 08:24:33;;;;;;;11.68;6.93;;;10.90;99.90;;;;;;5071778;28;20051;-80
2022/09/22 08:26:59;;;;;;;16.73;7.32;;;11.10;99.90;;;;;;5070624;28;20097;-79
2022/09/22 08:29:25;;;;;;;12.82;6.25;;;11.20;99.90;;;;;;5085335;28;20040;-77
2022/09/22 08:31:52;;;;;;;11.65;5.90;;;11.30;99.90;;;;;;5085428;28;20055;-78
2022/09/22 08:34:18;;;;;;;10.77;7.20;;;11.40;99.90;;;;;;5088748;28;20040;-79
2022/09/22 08:36:47;;;;;;;13.82;6.80;;;11.40;99.90;;;;;;5064612;28;20114;-77
2022/09/22 08:39:13;;;;;;;13.88;7.78;;;11.50;99.90;;;;;;5086172;28;20913;-79
2022/09/22 08:42:19;;;;;;;15.18;6.95;;;11.50;99.90;;;;;;5072086;27;20078;-79
2022/09/22 08:44:48;;;;;;;;;;;11.70;99.90;;;;;;5010751;28;20046;-80
2022/09/22 08:51:50;;;;;;;13.60;6.15;;;11.80;99.90;;;;;;4995612;28;20413;-79
2022/09/22 08:53:10;;;;;;;12.48;6.30;;;12.10;99.90;;;;;;5008324;28;20069;-78
2022/09/22 08:55:41;;;;;;;7.13;5.40;;;12.20;99.90;;;;;;5011065;28;20057;-78
2022/09/22 08:58:26;;;;;;;7.70;5.18;;;12.30;99.90;;;;;;5030830;28;20037;-79
2022/09/22 09:01:07;;;;;;;7.78;4.65;;;12.30;99.90;;;;;;5008715;28;20100;-79
2022/09/22 09:03:54;;;;;;;9.57;4.50;;;12.50;99.90;;;;;;5007932;28;20073;-79
2022/09/22 09:06:23;;;;;;;13.15;4.80;;;12.40;99.90;;;;;;4981974;28;20661;-78
2022/09/22 09:09:13;;;;;;;13.65;4.70;;;12.60;99.90;;;;;;5003550;28;20124;-78
2022/09/22 09:12:05;;;;;;;11.93;4.72;;;12.60;99.90;;;;;;5024632;28;20041;-78
2022/09/22 09:14:56;;;;;;;11.05;4.55;;;12.80;99.90;;;;;;5025055;28;20046;-78
2022/09/22 09:17:32;;;;;;;9.63;4.22;;;13.00;99.90;;;;;;5092023;28;20379;-79
2022/09/22 09:20:16;;;;;;;7.80;4.40;;;13.00;99.90;;;;;;5071920;28;20454;-80
2022/09/22 09:22:54;;;;;;;10.23;3.50;;;13.00;99.90;;;;;;5074568;28;20036;-77
2022/09/22 09:25:34;;;;;;;8.93;4.10;;;13.20;99.90;;;;;;5092682;28;20451;-79
2022/09/22 09:28:04;;;;;;;5.72;3.15;;;13.20;99.90;;;;;;5093759;28;20062;-79
2022/09/22 09:30:52;;;;;;;8.75;3.78;;;13.30;99.90;;;;;;5059838;28;20060;-79
2022/09/22 09:33:28;;;;;;;11.50;3.10;;;13.40;99.90;;;;;;5081627;28;20039;-81
2022/09/22 09:35:54;;;;;;;6.88;2.97;;;13.50;99.90;;;;;;5071332;28;20089;-79
2022/09/22 09:38:27;;;;;;;6.07;2.50;;;13.50;99.90;;;;;;5091803;28;20036;-78
2022/09/22 09:41:08;;;;;;;6.47;2.50;;;13.60;99.90;;;;;;5088654;28;20036;-78
2022/09/22 09:43:35;;;;;;;10.45;2.50;;;13.60;99.90;;;;;;5068485;28;20343;-78
2022/09/22 09:46:13;;;;;;;11.88;2.53;;;13.70;99.90;;;;;;5086471;28;20406;-78
2022/09/22 09:48:58;;;;;;;7.25;2.60;;;13.80;99.90;;;;;;5084485;28;20055;-79
2022/09/22 09:51:24;;;;;;;7.25;2.25;;;13.80;99.90;;;;;;5082744;28;20122;-79
2022/09/22 09:53:53;;;;;;;9.95;2.03;;;13.80;99.90;;;;;;5084441;28;20031;-80
2022/09/22 09:56:22;;;;;;;6.40;1.77;;;14.00;99.90;;;;;;5066273;28;20524;-80
2022/09/22 10:01:43;;;;;;;6.88;2.10;;;14.20;99.90;;;;;;5087348;28;20063;-78
2022/09/22 10:04:18;;;;;;;6.05;2.15;;;14.20;99.90;;;;;;5081986;28;20450;-81
2022/09/22 10:06:45;;;;;;;5.85;2.20;;;14.30;99.90;;;;;;5068783;28;20057;-81
2022/09/22 10:09:21;;;;;;;7.00;2.30;;;14.30;99.90;;;;;;5069774;28;20995;-81
2022/09/22 10:11:57;;;;;;;7.47;2.80;;;14.50;99.90;;;;;;5104784;28;20044;-79
2022/09/22 10:14:26;;;;;;;9.82;2.70;;;14.50;99.90;;;;;;5084768;28;20096;-77
2022/09/22 10:16:52;;;;;;;7.85;2.95;;;14.60;99.90;;;;;;5092558;28;20063;-77
2022/09/22 10:19:28;;;;;;;7.25;3.40;;;14.80;99.90;;;;;;5104444;28;20051;-76
2022/09/22 10:22:15;;;;;;;12.52;3.22;;;14.80;99.90;;;;;;5085694;28;20055;-78
2022/09/22 10:25:00;;;;;;;9.50;2.60;;;14.80;99.90;;;;;;5077687;28;20148;-78
2022/09/22 10:27:27;;;;;;;;;;;15.00;99.90;;;;;;5073303;28;20035;-78
2022/09/22 10:30:20;;;;;;;8.80;2.90;;;15.10;99.90;;;;;;5082525;28;20330;-80
2022/09/22 10:33:02;;;;;;;5.43;2.83;;;15.00;99.90;;;;;;5065194;28;21693;-79
2022/09/22 10:35:32;;;;;;;6.93;2.28;;;15.10;99.90;;;;;;5079719;28;20320;-79
2022/09/22 10:38:01;;;;;;;6.75;2.42;;;15.20;99.90;;;;;;5063950;28;20043;-80
2022/09/22 10:40:30;;;;;;;6.82;2.83;;;15.30;99.90;;;;;;5080239;28;20548;-79
2022/09/22 10:42:58;;;;;;;8.23;2.20;;;15.50;99.90;;;;;;5066706;28;20063;-79
2022/09/22 10:45:46;;;;;;;14.00;2.60;;;15.50;99.90;;;;;;5079791;28;20043;-79
2022/09/22 10:48:30;;;;;;;8.40;2.03;;;15.60;99.90;;;;;;5105250;28;20134;-81
2022/09/22 10:51:20;;;;;;;7.43;1.95;;;15.90;99.90;;;;;;5067564;28;20144;-80
2022/09/22 10:54:10;;;;;;;5.40;1.80;;;15.80;99.90;;;;;;5073804;28;20056;-80
2022/09/22 10:56:45;;;;;;;6.18;2.20;;;15.80;99.90;;;;;;5069586;28;20481;-79
2022/09/22 10:59:10;;;;;;;8.88;2.28;;;15.90;99.90;;;;;;5063209;28;20040;-79
2022/09/22 11:02:14;;;;;;;7.32;2.28;;;16.20;99.90;;;;;;5067897;28;20348;-80
2022/09/22 11:05:02;;;;;;;5.38;1.90;;;16.50;99.90;;;;;;5085045;28;20051;-79
2022/09/22 11:13:48;;;;;;;4.25;1.95;;;17.00;99.90;;;;;;5071039;28;20053;-81
2022/09/22 11:16:16;;;;;;;8.73;2.30;;;16.70;99.90;;;;;;5081174;28;20062;-79
2022/09/22 11:19:04;;;;;;;6.05;2.13;;;16.70;99.90;;;;;;5073066;28;20040;-79
2022/09/22 11:22:08;;;;;;;6.18;2.33;;;16.60;99.90;;;;;;5070928;28;20044;-78
2022/09/22 11:25:01;;;;;;;5.75;1.90;;;16.80;99.90;;;;;;5066216;28;20112;-80
2022/09/22 11:27:39;;;;;;;8.18;2.35;;;17.20;99.90;;;;;;5085039;28;20092;-81
2022/09/22 11:30:20;;;;;;;6.30;2.22;;;17.20;99.90;;;;;;5098527;28;20055;-80
2022/09/22 11:33:20;;;;;;;10.15;2.20;;;17.30;99.90;;;;;;5080258;28;20097;-79
2022/09/22 11:36:15;;;;;;;7.40;2.20;;;17.40;99.90;;;;;;5072440;28;20067;-79
2022/09/22 11:39:01;;;;;;;5.47;1.98;;;17.50;99.90;;;;;;4987096;28;20048;-78
2022/09/22 11:41:37;;;;;;;4.57;1.85;;;17.60;99.90;;;;;;4998771;28;20053;-78
2022/09/22 11:44:08;;;;;;;7.95;2.25;;;17.50;99.90;;;;;;5015566;28;20150;-81
2022/09/22 11:46:55;;;;;;;5.50;2.40;;;17.20;99.90;;;;;;4984882;28;20116;-78
2022/09/22 11:49:46;;;;;;;5.00;2.50;;;17.00;99.90;;;;;;5001715;28;20489;-78
2022/09/22 11:52:33;;;;;;;7.78;2.65;;;17.00;99.90;;;;;;5018388;28;20136;-78
2022/09/22 11:55:25;;;;;;;4.45;2.53;;;17.10;99.90;;;;;;5001623;28;20056;-77
2022/09/22 11:57:58;;;;;;;5.30;2.47;;;17.20;99.90;;;;;;5016573;28;20210;-78
2022/09/22 12:00:23;;;;;;;9.05;2.80;;;17.30;99.90;;;;;;4990602;28;20046;-78
2022/09/22 12:03:00;;;;;;;9.70;3.38;;;17.40;99.90;;;;;;5002056;28;20044;-79
2022/09/22 12:05:47;;;;;;;11.50;3.80;;;17.50;99.90;;;;;;4994373;28;20038;-79
2022/09/22 12:08:19;;;;;;;7.93;3.70;;;17.50;99.90;;;;;;4985200;28;20041;-78
2022/09/22 12:10:48;;;;;;;11.00;4.28;;;17.30;99.90;;;;;;4986730;28;20084;-79
2022/09/22 12:13:20;;;;;;;6.90;3.88;;;17.40;99.90;;;;;;5023132;28;20144;-79
2022/09/22 12:16:19;;;;;;;10.73;3.60;;;17.30;99.90;;;;;;5058042;28;20201;-78
2022/09/22 12:19:04;;;;;;;6.13;3.47;;;17.20;99.90;;;;;;5073702;27;20475;-78
2022/09/22 12:21:45;;;;;;;7.25;3.20;;;17.20;99.90;;;;;;5103450;28;20502;-78
2022/09/22 12:24:11;;;;;;;6.28;3.20;;;17.40;99.90;;;;;;5088095;28;20043;-77
2022/09/22 12:26:43;;;;;;;10.48;3.55;;;17.50;99.90;;;;;;5067355;28;20448;-78
2022/09/22 12:29:15;;;;;;;7.65;3.72;;;17.70;99.90;;;;;;5086711;28;20059;-78
2022/09/22 12:31:49;;;;;;;7.40;3.60;;;17.90;99.90;;;;;;5102640;28;20127;-77
2022/09/22 12:34:30;;;;;;;6.97;3.90;;;18.00;99.90;;;;;;5088231;28;20043;-77
2022/09/22 12:37:18;;;;;;;8.38;3.83;;;17.60;99.90;;;;;;5071796;28;20115;-77
2022/09/22 12:39:47;;;;;;;9.43;3.90;;;17.50;99.90;;;;;;5085118;28;20042;-79
2022/09/22 12:42:34;;;;;;;6.35;3.22;;;17.30;99.90;;;;;;5084201;28;21619;-78
2022/09/22 12:45:17;;;;;;;8.20;3.28;;;17.40;99.90;;;;;;5073810;28;20139;-80
2022/09/22 12:47:48;;;;;;;11.68;3.60;;;17.50;99.90;;;;;;5085119;28;20043;-80
2022/09/22 12:50:23;;;;;;;8.85;3.75;;;17.90;99.90;;;;;;5090429;28;20482;-80
2022/09/22 12:52:49;;;;;;;7.90;3.30;;;18.10;99.90;;;;;;5074397;28;20054;-79
2022/09/22 12:55:21;;;;;;;9.23;3.33;;;18.20;99.90;;;;;;5074451;28;20036;-80
2022/09/22 12:57:51;;;;;;;7.68;3.47;;;18.40;99.90;;;;;;5090640;28;20044;-80
2022/09/22 13:00:27;;;;;;;7.68;3.53;;;18.40;99.90;;;;;;5077982;28;20052;-80
2022/09/22 13:02:56;;;;;;;7.93;3.40;;;18.30;99.90;;;;;;5068339;28;20032;-80
2022/09/22 13:05:28;;;;;;;9.30;3.20;;;18.20;99.90;;;;;;5067880;28;20044;-81
2022/09/22 13:07:57;;;;;;;11.18;3.47;;;18.30;99.90;;;;;;5103982;27;20028;-79
2022/09/22 13:10:22;;;;;;;9.52;3.20;;;18.40;99.90;;;;;;5084516;28;20048;-81
2022/09/22 13:13:09;;;;;;;6.82;3.17;;;18.60;99.90;;;;;;5067515;28;20050;-80
2022/09/22 13:15:48;;;;;;;7.20;3.20;;;18.60;99.90;;;;;;5084699;28;20428;-80
2022/09/22 13:18:26;;;;;;;9.25;4.25;;;18.30;99.90;;;;;;5086368;28;22176;-80
2022/09/22 13:20:51;;;;;;;12.70;3.80;;;18.10;99.90;;;;;;5066564;28;20123;-78
2022/09/22 13:23:17;;;;;;;9.02;3.53;;;18.10;99.90;;;;;;5068005;28;20035;-79
2022/09/22 13:25:43;;;;;;;7.20;3.30;;;18.20;99.90;;;;;;5089230;28;20043;-79
2022/09/22 13:28:08;;;;;;;12.07;3.30;;;18.40;99.90;;;;;;5083675;28;20398;-78
2022/09/22 13:30:35;;;;;;;8.52;3.63;;;18.60;99.90;;;;;;5082996;28;20094;-78
2022/09/22 13:33:01;;;;;;;7.82;3.70;;;18.70;99.90;;;;;;5067419;28;20039;-77
2022/09/22 13:35:36;;;;;;;8.50;3.53;;;18.80;99.90;;;;;;5084196;28;20514;-79